sensor_id;sensor_type;location;lat;lon;timestamp;temperature;humidity
12130;DHT22;6128;59.340;18.040;2023-06-19T00:01:44;17.30;99.90
12130;DHT22;6128;59.340;18.040;2023-06-19T00:04:11;17.30;99.90
12130;DHT22;6128;59.340;18.040;2023-06-19T00:06:38;17.30;99.90
12130;DHT22;6128;59.340;18.040;2023-06-19T00:09:07;17.40;99.90
12130;DHT22;6128;59.340;18.040;2023-06-19T00:11:36;17.30;99.90
12130;DHT22;6128;59.340;18.040;2023-06-19T00:14:03;17.30;99.90
12130;DHT22;6128;59.340;18.040;2023-06-19T00:16:31;17.30;99.90
12130;DHT22;6128;59.340;18.040;2023-06-19T00:18:58;17.40;99.90
12130;DHT22;6128;59.340;18.040;2023-06-19T00:21:26;17.30;99.90
12130;DHT22;6128;59.340;18.040;2023-06-19T00:23:53;17.30;99.90
12130;DHT22;6128;59.340;18.040;2023-06-19T00:26:20;17.30;99.90
12130;DHT22;6128;59.340;18.040;2023-06-19T00:28:52;17.30;99.90
12130;DHT22;6128;59.340;18.040;2023-06-19T00:31:19;17.30;99.90
12130;DHT22;6128;59.340;18.040;2023-06-19T00:33:46;17.30;99.90
12130;DHT22;6128;59.340;18.040;2023-06-19T00:36:15;17.30;99.90
12130;DHT22;6128;59.340;18.040;2023-06-19T00:38:46;17.40;99.90
12130;DHT22;6128;59.340;18.040;2023-06-19T00:41:15;17.30;99.90
12130;DHT22;6128;59.340;18.040;2023-06-19T00:43:42;17.30;99.90
12130;DHT22;6128;59.340;18.040;2023-06-19T00:46:11;17.30;99.90
12130;DHT22;6128;59.340;18.040;2023-06-19T00:48:39;17.30;99.90
12130;DHT22;6128;59.340;18.040;2023-06-19T00:51:06;17.40;99.90
12130;DHT22;6128;59.340;18.040;2023-06-19T00:53:33;17.40;99.90
12130;DHT22;6128;59.340;18.040;2023-06-19T00:56:02;17.30;99.90
12130;DHT22;6128;59.340;18.040;2023-06-19T00:58:30;17.30;99.90
12130;DHT22;6128;59.340;18.040;2023-06-19T01:00:58;17.30;99.90
12130;DHT22;6128;59.340;18.040;2023-06-19T01:03:26;17.30;99.90
12130;DHT22;6128;59.340;18.040;2023-06-19T01:05:54;17.40;99.90
12130;DHT22;6128;59.340;18.040;2023-06-19T01:08:42;17.30;99.90
12130;DHT22;6128;59.340;18.040;2023-06-19T01:11:12;17.30;99.90
12130;DHT22;6128;59.340;18.040;2023-06-19T01:13:44;17.30;99.90
12130;DHT22;6128;59.340;18.040;2023-06-19T01:16:12;17.20;99.90
12130;DHT22;6128;59.340;18.040;2023-06-19T01:18:42;17.30;99.90
12130;DHT22;6128;59.340;18.040;2023-06-19T01:21:11;17.30;99.90
12130;DHT22;6128;59.340;18.040;2023-06-19T01:23:40;17.30;99.90
12130;DHT22;6128;59.340;18.040;2023-06-19T01:26:07;17.30;99.90
12130;DHT22;6128;59.340;18.040;2023-06-19T01:28:35;17.30;99.90
12130;DHT22;6128;59.340;18.040;2023-06-19T01:31:08;17.40;99.90
12130;DHT22;6128;59.340;18.040;2023-06-19T01:33:38;17.40;99.90
12130;DHT22;6128;59.340;18.040;2023-06-19T01:36:07;17.40;99.90
12130;DHT22;6128;59.340;18.040;2023-06-19T01:38:35;17.30;99.90
12130;DHT22;6128;59.340;18.040;2023-06-19T01:41:05;17.30;99.90
12130;DHT22;6128;59.340;18.040;2023-06-19T01:43:33;17.30;99.90
12130;DHT22;6128;59.340;18.040;2023-06-19T01:46:00;17.30;99.90
12130;DHT22;6128;59.340;18.040;2023-06-19T01:48:28;17.30;99.90
12130;DHT22;6128;59.340;18.040;2023-06-19T01:50:55;17.20;99.90
12130;DHT22;6128;59.340;18.040;2023-06-19T01:53:22;17.20;99.90
12130;DHT22;6128;59.340;18.040;2023-06-19T01:55:49;17.20;99.90
12130;DHT22;6128;59.340;18.040;2023-06-19T01:58:18;17.20;99.90
12130;DHT22;6128;59.340;18.040;2023-06-19T02:00:45;17.20;99.90
12130;DHT22;6128;59.340;18.040;2023-06-19T02:03:13;17.20;99.90
12130;DHT22;6128;59.340;18.040;2023-06-19T02:05:40;17.20;99.90
12130;DHT22;6128;59.340;18.040;2023-06-19T02:08:07;17.20;99.90
12130;DHT22;6128;59.340;18.040;2023-06-19T02:10:34;17.20;99.90
12130;DHT22;6128;59.340;18.040;2023-06-19T02:13:01;17.10;99.90
12130;DHT22;6128;59.340;18.040;2023-06-19T02:15:29;17.10;99.90
12130;DHT22;6128;59.340;18.040;2023-06-19T02:17:56;17.10;99.90
12130;DHT22;6128;59.340;18.040;2023-06-19T02:20:24;17.10;99.90
12130;DHT22;6128;59.340;18.040;2023-06-19T02:22:51;17.10;99.90
12130;DHT22;6128;59.340;18.040;2023-06-19T02:25:19;17.20;99.90
12130;DHT22;6128;59.340;18.040;2023-06-19T02:27:46;17.30;99.90
12130;DHT22;6128;59.340;18.040;2023-06-19T02:30:13;17.30;99.90
12130;DHT22;6128;59.340;18.040;2023-06-19T02:32:42;17.20;99.90
12130;DHT22;6128;59.340;18.040;2023-06-19T02:35:10;17.20;99.90
12130;DHT22;6128;59.340;18.040;2023-06-19T02:37:37;17.20;99.90
12130;DHT22;6128;59.340;18.040;2023-06-19T02:40:05;17.20;99.90
12130;DHT22;6128;59.340;18.040;2023-06-19T02:42:34;17.10;99.90
12130;DHT22;6128;59.340;18.040;2023-06-19T02:45:02;17.20;99.90
12130;DHT22;6128;59.340;18.040;2023-06-19T02:47:29;17.20;99.90
12130;DHT22;6128;59.340;18.040;2023-06-19T02:49:59;17.10;99.90
12130;DHT22;6128;59.340;18.040;2023-06-19T02:52:27;17.10;99.90
12130;DHT22;6128;59.340;18.040;2023-06-19T02:54:54;17.10;99.90
12130;DHT22;6128;59.340;18.040;2023-06-19T02:57:22;17.20;99.90
12130;DHT22;6128;59.340;18.040;2023-06-19T02:59:49;17.10;99.90
12130;DHT22;6128;59.340;18.040;2023-06-19T03:02:16;17.10;99.90
12130;DHT22;6128;59.340;18.040;2023-06-19T03:04:43;17.10;99.90
12130;DHT22;6128;59.340;18.040;2023-06-19T03:07:12;17.10;99.90
12130;DHT22;6128;59.340;18.040;2023-06-19T03:09:40;17.20;99.90
12130;DHT22;6128;59.340;18.040;2023-06-19T03:12:09;17.20;99.90
12130;DHT22;6128;59.340;18.040;2023-06-19T03:14:37;17.20;99.90
12130;DHT22;6128;59.340;18.040;2023-06-19T03:17:05;17.20;99.90
12130;DHT22;6128;59.340;18.040;2023-06-19T03:19:32;17.20;99.90
12130;DHT22;6128;59.340;18.040;2023-06-19T03:22:00;17.10;99.90
12130;DHT22;6128;59.340;18.040;2023-06-19T03:24:28;17.20;99.90
12130;DHT22;6128;59.340;18.040;2023-06-19T03:26:55;17.10;99.90
12130;DHT22;6128;59.340;18.040;2023-06-19T03:29:22;17.10;99.90
12130;DHT22;6128;59.340;18.040;2023-06-19T03:31:49;17.20;99.90
12130;DHT22;6128;59.340;18.040;2023-06-19T03:34:17;17.20;99.90
12130;DHT22;6128;59.340;18.040;2023-06-19T03:36:44;17.30;99.90
12130;DHT22;6128;59.340;18.040;2023-06-19T03:39:11;17.30;99.90
12130;DHT22;6128;59.340;18.040;2023-06-19T03:41:39;17.40;99.90
12130;DHT22;6128;59.340;18.040;2023-06-19T03:44:06;17.30;99.90
12130;DHT22;6128;59.340;18.040;2023-06-19T03:46:33;17.20;99.90
12130;DHT22;6128;59.340;18.040;2023-06-19T03:49:00;17.20;99.90
12130;DHT22;6128;59.340;18.040;2023-06-19T03:51:28;17.20;99.90
12130;DHT22;6128;59.340;18.040;2023-06-19T03:53:55;17.30;99.90
12130;DHT22;6128;59.340;18.040;2023-06-19T03:56:22;17.30;99.90
12130;DHT22;6128;59.340;18.040;2023-06-19T03:58:51;17.30;99.90
12130;DHT22;6128;59.340;18.040;2023-06-19T04:01:18;17.30;99.90
12130;DHT22;6128;59.340;18.040;2023-06-19T04:03:45;17.30;99.90
12130;DHT22;6128;59.340;18.040;2023-06-19T04:06:12;17.40;99.90
12130;DHT22;6128;59.340;18.040;2023-06-19T04:08:39;17.40;99.90
12130;DHT22;6128;59.340;18.040;2023-06-19T04:11:06;17.40;99.90
12130;DHT22;6128;59.340;18.040;2023-06-19T04:13:34;17.40;99.90
12130;DHT22;6128;59.340;18.040;2023-06-19T04:16:02;17.40;99.90
12130;DHT22;6128;59.340;18.040;2023-06-19T04:18:29;17.30;99.90
12130;DHT22;6128;59.340;18.040;2023-06-19T04:20:56;17.40;99.90
12130;DHT22;6128;59.340;18.040;2023-06-19T04:23:26;17.40;99.90
12130;DHT22;6128;59.340;18.040;2023-06-19T04:25:53;17.40;99.90
12130;DHT22;6128;59.340;18.040;2023-06-19T04:28:20;17.50;99.90
12130;DHT22;6128;59.340;18.040;2023-06-19T04:30:47;17.40;99.90
12130;DHT22;6128;59.340;18.040;2023-06-19T04:33:16;17.40;99.90
12130;DHT22;6128;59.340;18.040;2023-06-19T04:35:47;17.40;99.90
12130;DHT22;6128;59.340;18.040;2023-06-19T04:38:14;17.40;99.90
12130;DHT22;6128;59.340;18.040;2023-06-19T04:40:41;17.40;99.90
12130;DHT22;6128;59.340;18.040;2023-06-19T04:43:09;17.50;99.90
12130;DHT22;6128;59.340;18.040;2023-06-19T04:45:36;17.50;99.90
12130;DHT22;6128;59.340;18.040;2023-06-19T04:48:04;17.60;99.90
12130;DHT22;6128;59.340;18.040;2023-06-19T04:50:32;17.60;99.90
12130;DHT22;6128;59.340;18.040;2023-06-19T04:52:59;17.70;99.90
12130;DHT22;6128;59.340;18.040;2023-06-19T04:55:27;17.80;99.90
12130;DHT22;6128;59.340;18.040;2023-06-19T04:57:54;17.90;99.90
12130;DHT22;6128;59.340;18.040;2023-06-19T05:00:21;17.90;99.90
12130;DHT22;6128;59.340;18.040;2023-06-19T05:02:49;18.00;99.90
12130;DHT22;6128;59.340;18.040;2023-06-19T05:05:16;18.00;99.90
12130;DHT22;6128;59.340;18.040;2023-06-19T05:07:45;18.00;99.90
12130;DHT22;6128;59.340;18.040;2023-06-19T05:10:12;17.90;99.90
12130;DHT22;6128;59.340;18.040;2023-06-19T05:12:39;17.90;99.90
12130;DHT22;6128;59.340;18.040;2023-06-19T05:15:08;17.90;99.90
12130;DHT22;6128;59.340;18.040;2023-06-19T05:17:38;17.90;99.90
12130;DHT22;6128;59.340;18.040;2023-06-19T05:20:14;17.90;99.90
12130;DHT22;6128;59.340;18.040;2023-06-19T05:22:42;17.90;99.90
12130;DHT22;6128;59.340;18.040;2023-06-19T05:25:10;17.90;99.90
12130;DHT22;6128;59.340;18.040;2023-06-19T05:27:37;17.90;99.90
12130;DHT22;6128;59.340;18.040;2023-06-19T05:30:06;17.90;99.90
12130;DHT22;6128;59.340;18.040;2023-06-19T05:32:33;17.90;99.90
12130;DHT22;6128;59.340;18.040;2023-06-19T05:35:00;17.90;99.90
12130;DHT22;6128;59.340;18.040;2023-06-19T05:37:28;18.00;99.90
12130;DHT22;6128;59.340;18.040;2023-06-19T05:39:55;18.00;99.90
12130;DHT22;6128;59.340;18.040;2023-06-19T05:42:24;18.00;99.90
12130;DHT22;6128;59.340;18.040;2023-06-19T05:44:51;18.00;99.90
12130;DHT22;6128;59.340;18.040;2023-06-19T05:47:18;18.10;99.90
12130;DHT22;6128;59.340;18.040;2023-06-19T05:49:47;18.10;99.90
12130;DHT22;6128;59.340;18.040;2023-06-19T05:52:14;18.10;99.90
12130;DHT22;6128;59.340;18.040;2023-06-19T05:54:41;18.10;99.90
12130;DHT22;6128;59.340;18.040;2023-06-19T05:57:08;18.10;99.90
12130;DHT22;6128;59.340;18.040;2023-06-19T05:59:38;18.20;99.90
12130;DHT22;6128;59.340;18.040;2023-06-19T06:02:07;18.20;99.90
12130;DHT22;6128;59.340;18.040;2023-06-19T06:04:34;18.20;99.90
12130;DHT22;6128;59.340;18.040;2023-06-19T06:07:02;18.10;99.90
12130;DHT22;6128;59.340;18.040;2023-06-19T06:09:32;18.20;99.90
12130;DHT22;6128;59.340;18.040;2023-06-19T06:12:00;18.10;99.90
12130;DHT22;6128;59.340;18.040;2023-06-19T06:14:27;18.10;99.90
12130;DHT22;6128;59.340;18.040;2023-06-19T06:16:56;18.20;99.90
12130;DHT22;6128;59.340;18.040;2023-06-19T06:19:23;18.20;99.90
12130;DHT22;6128;59.340;18.040;2023-06-19T06:21:50;18.30;99.90
12130;DHT22;6128;59.340;18.040;2023-06-19T06:24:17;18.50;99.90
12130;DHT22;6128;59.340;18.040;2023-06-19T06:26:44;18.50;99.90
12130;DHT22;6128;59.340;18.040;2023-06-19T06:29:12;18.80;99.90
12130;DHT22;6128;59.340;18.040;2023-06-19T06:31:39;18.80;99.90
12130;DHT22;6128;59.340;18.040;2023-06-19T06:34:08;19.00;99.90
12130;DHT22;6128;59.340;18.040;2023-06-19T06:36:35;19.20;99.90
12130;DHT22;6128;59.340;18.040;2023-06-19T06:39:03;19.10;99.90
12130;DHT22;6128;59.340;18.040;2023-06-19T06:41:32;19.10;99.90
12130;DHT22;6128;59.340;18.040;2023-06-19T06:43:59;19.20;99.90
12130;DHT22;6128;59.340;18.040;2023-06-19T06:46:26;19.10;99.90
12130;DHT22;6128;59.340;18.040;2023-06-19T06:48:53;18.90;99.90
12130;DHT22;6128;59.340;18.040;2023-06-19T06:51:22;19.00;99.90
12130;DHT22;6128;59.340;18.040;2023-06-19T06:53:50;19.00;99.90
12130;DHT22;6128;59.340;18.040;2023-06-19T06:56:17;19.00;99.90
12130;DHT22;6128;59.340;18.040;2023-06-19T06:58:44;19.00;99.90
12130;DHT22;6128;59.340;18.040;2023-06-19T07:01:12;19.00;99.90
12130;DHT22;6128;59.340;18.040;2023-06-19T07:03:39;19.00;99.90
12130;DHT22;6128;59.340;18.040;2023-06-19T07:06:06;19.00;99.90
12130;DHT22;6128;59.340;18.040;2023-06-19T07:08:35;19.10;99.90
12130;DHT22;6128;59.340;18.040;2023-06-19T07:11:02;19.20;99.90
12130;DHT22;6128;59.340;18.040;2023-06-19T07:13:30;19.20;99.90
12130;DHT22;6128;59.340;18.040;2023-06-19T07:15:57;19.20;99.90
12130;DHT22;6128;59.340;18.040;2023-06-19T07:18:27;19.20;99.90
12130;DHT22;6128;59.340;18.040;2023-06-19T07:20:54;19.30;99.90
12130;DHT22;6128;59.340;18.040;2023-06-19T07:23:24;19.30;99.90
12130;DHT22;6128;59.340;18.040;2023-06-19T07:25:53;19.40;99.90
12130;DHT22;6128;59.340;18.040;2023-06-19T07:28:21;19.50;99.90
12130;DHT22;6128;59.340;18.040;2023-06-19T07:30:48;19.60;99.90
12130;DHT22;6128;59.340;18.040;2023-06-19T07:33:17;19.80;99.90
12130;DHT22;6128;59.340;18.040;2023-06-19T07:35:45;19.90;99.90
12130;DHT22;6128;59.340;18.040;2023-06-19T07:38:12;20.10;99.90
12130;DHT22;6128;59.340;18.040;2023-06-19T07:40:39;20.10;99.90
12130;DHT22;6128;59.340;18.040;2023-06-19T07:43:08;20.20;99.90
12130;DHT22;6128;59.340;18.040;2023-06-19T07:45:35;20.30;99.90
12130;DHT22;6128;59.340;18.040;2023-06-19T07:48:03;20.40;99.90
12130;DHT22;6128;59.340;18.040;2023-06-19T07:50:31;20.40;99.90
12130;DHT22;6128;59.340;18.040;2023-06-19T07:52:59;20.30;99.90
12130;DHT22;6128;59.340;18.040;2023-06-19T07:55:26;20.40;99.90
12130;DHT22;6128;59.340;18.040;2023-06-19T07:57:55;20.60;99.90
12130;DHT22;6128;59.340;18.040;2023-06-19T08:00:25;20.60;99.90
12130;DHT22;6128;59.340;18.040;2023-06-19T08:02:52;20.60;99.90
12130;DHT22;6128;59.340;18.040;2023-06-19T08:05:19;20.70;99.90
12130;DHT22;6128;59.340;18.040;2023-06-19T08:07:47;20.80;99.90
12130;DHT22;6128;59.340;18.040;2023-06-19T08:10:14;20.90;99.90
12130;DHT22;6128;59.340;18.040;2023-06-19T08:12:41;21.00;99.90
12130;DHT22;6128;59.340;18.040;2023-06-19T08:15:09;20.80;99.90
12130;DHT22;6128;59.340;18.040;2023-06-19T08:17:38;21.00;99.90
12130;DHT22;6128;59.340;18.040;2023-06-19T08:20:11;21.20;99.90
12130;DHT22;6128;59.340;18.040;2023-06-19T08:22:39;21.60;99.90
12130;DHT22;6128;59.340;18.040;2023-06-19T08:25:07;21.70;99.90
12130;DHT22;6128;59.340;18.040;2023-06-19T08:27:36;21.90;99.90
12130;DHT22;6128;59.340;18.040;2023-06-19T08:30:06;22.30;99.90
12130;DHT22;6128;59.340;18.040;2023-06-19T08:32:34;22.50;99.90
12130;DHT22;6128;59.340;18.040;2023-06-19T08:35:03;22.60;99.90
12130;DHT22;6128;59.340;18.040;2023-06-19T08:37:32;22.50;99.90
12130;DHT22;6128;59.340;18.040;2023-06-19T08:40:01;22.10;99.90
12130;DHT22;6128;59.340;18.040;2023-06-19T08:42:34;22.00;99.90
12130;DHT22;6128;59.340;18.040;2023-06-19T08:45:02;21.90;99.90
12130;DHT22;6128;59.340;18.040;2023-06-19T08:47:39;21.60;99.90
12130;DHT22;6128;59.340;18.040;2023-06-19T08:50:18;21.50;99.90
12130;DHT22;6128;59.340;18.040;2023-06-19T08:52:49;21.60;99.90
12130;DHT22;6128;59.340;18.040;2023-06-19T08:55:16;21.70;99.90
12130;DHT22;6128;59.340;18.040;2023-06-19T08:57:43;21.70;99.90
12130;DHT22;6128;59.340;18.040;2023-06-19T09:00:11;21.90;99.90
12130;DHT22;6128;59.340;18.040;2023-06-19T09:02:41;22.20;99.90
12130;DHT22;6128;59.340;18.040;2023-06-19T09:05:13;21.90;99.90
12130;DHT22;6128;59.340;18.040;2023-06-19T09:07:42;21.80;99.90
12130;DHT22;6128;59.340;18.040;2023-06-19T09:10:15;21.90;99.90
12130;DHT22;6128;59.340;18.040;2023-06-19T09:12:59;22.00;99.90
12130;DHT22;6128;59.340;18.040;2023-06-19T09:15:31;22.30;99.90
12130;DHT22;6128;59.340;18.040;2023-06-19T09:18:03;22.40;99.90
12130;DHT22;6128;59.340;18.040;2023-06-19T09:20:31;22.70;99.90
12130;DHT22;6128;59.340;18.040;2023-06-19T09:23:00;22.90;99.90
12130;DHT22;6128;59.340;18.040;2023-06-19T09:25:27;23.30;99.90
12130;DHT22;6128;59.340;18.040;2023-06-19T09:27:54;23.30;99.90
12130;DHT22;6128;59.340;18.040;2023-06-19T09:30:22;23.00;99.90
12130;DHT22;6128;59.340;18.040;2023-06-19T09:32:51;23.10;99.90
12130;DHT22;6128;59.340;18.040;2023-06-19T09:35:18;23.20;99.90
12130;DHT22;6128;59.340;18.040;2023-06-19T09:37:47;23.10;99.90
12130;DHT22;6128;59.340;18.040;2023-06-19T09:40:17;23.20;99.90
12130;DHT22;6128;59.340;18.040;2023-06-19T09:42:44;23.30;99.90
12130;DHT22;6128;59.340;18.040;2023-06-19T09:45:14;23.20;99.90
12130;DHT22;6128;59.340;18.040;2023-06-19T09:47:46;23.10;99.90
12130;DHT22;6128;59.340;18.040;2023-06-19T09:50:15;23.00;99.90
12130;DHT22;6128;59.340;18.040;2023-06-19T09:52:43;23.00;99.90
12130;DHT22;6128;59.340;18.040;2023-06-19T09:55:11;23.00;99.90
12130;DHT22;6128;59.340;18.040;2023-06-19T09:57:41;22.80;99.90
12130;DHT22;6128;59.340;18.040;2023-06-19T10:00:11;22.50;99.90
12130;DHT22;6128;59.340;18.040;2023-06-19T10:02:43;22.50;99.90
12130;DHT22;6128;59.340;18.040;2023-06-19T10:05:10;22.20;99.90
12130;DHT22;6128;59.340;18.040;2023-06-19T10:07:42;22.20;99.90
12130;DHT22;6128;59.340;18.040;2023-06-19T10:10:11;21.90;99.90
12130;DHT22;6128;59.340;18.040;2023-06-19T10:12:42;21.90;99.90
12130;DHT22;6128;59.340;18.040;2023-06-19T10:15:16;21.60;99.90
12130;DHT22;6128;59.340;18.040;2023-06-19T10:17:46;21.60;99.90
12130;DHT22;6128;59.340;18.040;2023-06-19T10:20:25;21.60;99.90
12130;DHT22;6128;59.340;18.040;2023-06-19T10:22:59;21.60;99.90
12130;DHT22;6128;59.340;18.040;2023-06-19T10:25:32;21.70;99.90
12130;DHT22;6128;59.340;18.040;2023-06-19T10:28:02;21.90;99.90
12130;DHT22;6128;59.340;18.040;2023-06-19T10:30:31;21.90;99.90
12130;DHT22;6128;59.340;18.040;2023-06-19T10:33:00;21.90;99.90
12130;DHT22;6128;59.340;18.040;2023-06-19T10:35:37;21.90;99.90
12130;DHT22;6128;59.340;18.040;2023-06-19T10:38:06;22.10;99.90
12130;DHT22;6128;59.340;18.040;2023-06-19T10:40:34;22.20;99.90
12130;DHT22;6128;59.340;18.040;2023-06-19T10:43:03;22.20;99.90
12130;DHT22;6128;59.340;18.040;2023-06-19T10:45:31;22.20;99.90
12130;DHT22;6128;59.340;18.040;2023-06-19T10:48:01;22.10;99.90
12130;DHT22;6128;59.340;18.040;2023-06-19T10:50:29;22.20;99.90
12130;DHT22;6128;59.340;18.040;2023-06-19T10:52:59;22.20;99.90
12130;DHT22;6128;59.340;18.040;2023-06-19T10:55:27;22.30;99.90
12130;DHT22;6128;59.340;18.040;2023-06-19T10:57:55;22.20;99.90
12130;DHT22;6128;59.340;18.040;2023-06-19T11:00:26;22.00;99.90
12130;DHT22;6128;59.340;18.040;2023-06-19T11:02:53;21.70;99.90
12130;DHT22;6128;59.340;18.040;2023-06-19T11:05:21;21.70;99.90
12130;DHT22;6128;59.340;18.040;2023-06-19T11:07:53;21.70;99.90
12130;DHT22;6128;59.340;18.040;2023-06-19T11:10:23;21.50;99.90
12130;DHT22;6128;59.340;18.040;2023-06-19T11:12:53;21.30;99.90
12130;DHT22;6128;59.340;18.040;2023-06-19T11:15:29;20.90;99.90
12130;DHT22;6128;59.340;18.040;2023-06-19T11:17:57;20.50;99.90
12130;DHT22;6128;59.340;18.040;2023-06-19T11:20:24;20.00;99.90
12130;DHT22;6128;59.340;18.040;2023-06-19T11:22:55;19.80;99.90
12130;DHT22;6128;59.340;18.040;2023-06-19T11:25:22;19.30;99.90
12130;DHT22;6128;59.340;18.040;2023-06-19T11:27:50;19.00;99.90
12130;DHT22;6128;59.340;18.040;2023-06-19T11:30:18;19.00;99.90
12130;DHT22;6128;59.340;18.040;2023-06-19T11:32:48;19.00;99.90
12130;DHT22;6128;59.340;18.040;2023-06-19T11:35:17;18.90;99.90
12130;DHT22;6128;59.340;18.040;2023-06-19T11:37:45;19.00;99.90
12130;DHT22;6128;59.340;18.040;2023-06-19T11:40:12;18.90;99.90
12130;DHT22;6128;59.340;18.040;2023-06-19T11:42:52;18.90;99.90
12130;DHT22;6128;59.340;18.040;2023-06-19T11:45:21;18.90;99.90
12130;DHT22;6128;59.340;18.040;2023-06-19T11:47:50;18.90;99.90
12130;DHT22;6128;59.340;18.040;2023-06-19T11:50:17;18.90;99.90
12130;DHT22;6128;59.340;18.040;2023-06-19T11:52:47;19.10;99.90
12130;DHT22;6128;59.340;18.040;2023-06-19T11:55:14;19.40;99.90
12130;DHT22;6128;59.340;18.040;2023-06-19T11:57:42;19.60;99.90
12130;DHT22;6128;59.340;18.040;2023-06-19T12:00:15;19.80;99.90
12130;DHT22;6128;59.340;18.040;2023-06-19T12:02:43;19.90;99.90
12130;DHT22;6128;59.340;18.040;2023-06-19T12:05:13;20.10;99.90
12130;DHT22;6128;59.340;18.040;2023-06-19T12:07:41;20.10;99.90
12130;DHT22;6128;59.340;18.040;2023-06-19T12:10:08;20.10;99.90
12130;DHT22;6128;59.340;18.040;2023-06-19T12:12:38;20.20;99.90
12130;DHT22;6128;59.340;18.040;2023-06-19T12:15:06;20.30;99.90
12130;DHT22;6128;59.340;18.040;2023-06-19T12:17:33;20.30;99.90
12130;DHT22;6128;59.340;18.040;2023-06-19T12:20:01;20.40;99.90
12130;DHT22;6128;59.340;18.040;2023-06-19T12:22:32;20.50;99.90
12130;DHT22;6128;59.340;18.040;2023-06-19T12:25:00;20.50;99.90
12130;DHT22;6128;59.340;18.040;2023-06-19T12:27:27;20.60;99.90
12130;DHT22;6128;59.340;18.040;2023-06-19T12:29:54;20.70;99.90
12130;DHT22;6128;59.340;18.040;2023-06-19T12:32:21;20.60;99.90
12130;DHT22;6128;59.340;18.040;2023-06-19T12:34:49;20.70;99.90
12130;DHT22;6128;59.340;18.040;2023-06-19T12:37:20;20.80;99.90
12130;DHT22;6128;59.340;18.040;2023-06-19T12:39:49;20.90;99.90
12130;DHT22;6128;59.340;18.040;2023-06-19T12:42:16;20.90;99.90
12130;DHT22;6128;59.340;18.040;2023-06-19T12:44:44;21.00;99.90
12130;DHT22;6128;59.340;18.040;2023-06-19T12:47:11;21.10;99.90
12130;DHT22;6128;59.340;18.040;2023-06-19T12:49:38;21.10;99.90
12130;DHT22;6128;59.340;18.040;2023-06-19T12:52:06;21.10;99.90
12130;DHT22;6128;59.340;18.040;2023-06-19T12:54:34;21.10;99.90
12130;DHT22;6128;59.340;18.040;2023-06-19T12:57:04;21.10;99.90
12130;DHT22;6128;59.340;18.040;2023-06-19T12:59:32;21.10;99.90
12130;DHT22;6128;59.340;18.040;2023-06-19T13:01:59;21.20;99.90
12130;DHT22;6128;59.340;18.040;2023-06-19T13:04:26;21.20;99.90
12130;DHT22;6128;59.340;18.040;2023-06-19T13:06:53;21.10;99.90
12130;DHT22;6128;59.340;18.040;2023-06-19T13:09:21;21.10;99.90
12130;DHT22;6128;59.340;18.040;2023-06-19T13:11:48;21.00;99.90
12130;DHT22;6128;59.340;18.040;2023-06-19T13:14:16;21.20;99.90
12130;DHT22;6128;59.340;18.040;2023-06-19T13:16:44;21.20;99.90
12130;DHT22;6128;59.340;18.040;2023-06-19T13:19:11;21.30;99.90
12130;DHT22;6128;59.340;18.040;2023-06-19T13:21:39;21.30;99.90
12130;DHT22;6128;59.340;18.040;2023-06-19T13:24:08;21.40;99.90
12130;DHT22;6128;59.340;18.040;2023-06-19T13:26:35;21.50;99.90
12130;DHT22;6128;59.340;18.040;2023-06-19T13:29:02;21.60;99.90
12130;DHT22;6128;59.340;18.040;2023-06-19T13:31:31;21.70;99.90
12130;DHT22;6128;59.340;18.040;2023-06-19T13:33:58;21.70;99.90
12130;DHT22;6128;59.340;18.040;2023-06-19T13:36:25;21.50;99.90
12130;DHT22;6128;59.340;18.040;2023-06-19T13:38:53;21.50;99.90
12130;DHT22;6128;59.340;18.040;2023-06-19T13:41:20;21.40;99.90
12130;DHT22;6128;59.340;18.040;2023-06-19T13:43:51;21.40;99.90
12130;DHT22;6128;59.340;18.040;2023-06-19T13:46:19;21.40;99.90
12130;DHT22;6128;59.340;18.040;2023-06-19T13:48:49;21.40;99.90
12130;DHT22;6128;59.340;18.040;2023-06-19T13:51:17;21.40;99.90
12130;DHT22;6128;59.340;18.040;2023-06-19T13:53:44;21.40;99.90
12130;DHT22;6128;59.340;18.040;2023-06-19T13:56:11;21.40;99.90
12130;DHT22;6128;59.340;18.040;2023-06-19T13:58:42;21.40;99.90
12130;DHT22;6128;59.340;18.040;2023-06-19T14:01:09;21.30;99.90
12130;DHT22;6128;59.340;18.040;2023-06-19T14:03:39;21.30;99.90
12130;DHT22;6128;59.340;18.040;2023-06-19T14:06:10;21.40;99.90
12130;DHT22;6128;59.340;18.040;2023-06-19T14:08:38;21.50;99.90
12130;DHT22;6128;59.340;18.040;2023-06-19T14:11:05;21.40;99.90
12130;DHT22;6128;59.340;18.040;2023-06-19T14:13:33;21.50;99.90
12130;DHT22;6128;59.340;18.040;2023-06-19T14:16:00;21.60;99.90
12130;DHT22;6128;59.340;18.040;2023-06-19T14:18:27;21.60;99.90
12130;DHT22;6128;59.340;18.040;2023-06-19T14:20:56;21.60;99.90
12130;DHT22;6128;59.340;18.040;2023-06-19T14:23:24;21.60;99.90
12130;DHT22;6128;59.340;18.040;2023-06-19T14:25:51;21.60;99.90
12130;DHT22;6128;59.340;18.040;2023-06-19T14:28:18;21.70;99.90
12130;DHT22;6128;59.340;18.040;2023-06-19T14:30:46;21.70;99.90
12130;DHT22;6128;59.340;18.040;2023-06-19T14:33:14;21.60;99.90
12130;DHT22;6128;59.340;18.040;2023-06-19T14:35:41;21.50;99.90
12130;DHT22;6128;59.340;18.040;2023-06-19T14:38:12;21.40;99.90
12130;DHT22;6128;59.340;18.040;2023-06-19T14:40:41;21.30;99.90
12130;DHT22;6128;59.340;18.040;2023-06-19T14:43:08;21.20;99.90
12130;DHT22;6128;59.340;18.040;2023-06-19T14:45:36;21.20;99.90
12130;DHT22;6128;59.340;18.040;2023-06-19T14:48:05;21.20;99.90
12130;DHT22;6128;59.340;18.040;2023-06-19T14:50:34;21.20;99.90
12130;DHT22;6128;59.340;18.040;2023-06-19T14:53:01;21.20;99.90
12130;DHT22;6128;59.340;18.040;2023-06-19T14:55:28;21.30;99.90
12130;DHT22;6128;59.340;18.040;2023-06-19T14:57:57;21.20;99.90
12130;DHT22;6128;59.340;18.040;2023-06-19T15:00:24;21.20;99.90
12130;DHT22;6128;59.340;18.040;2023-06-19T15:02:51;21.30;99.90
12130;DHT22;6128;59.340;18.040;2023-06-19T15:05:18;21.50;99.90
12130;DHT22;6128;59.340;18.040;2023-06-19T15:07:45;21.50;99.90
12130;DHT22;6128;59.340;18.040;2023-06-19T15:10:12;21.60;99.90
12130;DHT22;6128;59.340;18.040;2023-06-19T15:12:40;21.70;99.90
12130;DHT22;6128;59.340;18.040;2023-06-19T15:15:09;21.70;99.90
12130;DHT22;6128;59.340;18.040;2023-06-19T15:17:37;21.50;99.90
12130;DHT22;6128;59.340;18.040;2023-06-19T15:20:05;21.50;99.90
12130;DHT22;6128;59.340;18.040;2023-06-19T15:22:33;21.50;99.90
12130;DHT22;6128;59.340;18.040;2023-06-19T15:25:02;21.60;99.90
12130;DHT22;6128;59.340;18.040;2023-06-19T15:27:29;21.60;99.90
12130;DHT22;6128;59.340;18.040;2023-06-19T15:29:57;21.70;99.90
12130;DHT22;6128;59.340;18.040;2023-06-19T15:32:25;21.80;99.90
12130;DHT22;6128;59.340;18.040;2023-06-19T15:34:52;21.80;99.90
12130;DHT22;6128;59.340;18.040;2023-06-19T15:37:22;21.90;99.90